createdAt,value
2018-10-11T00:00:44.779Z,13.30
2018-10-11T00:01:44.694Z,11.60
2018-10-11T00:07:31.893Z,11.40
2018-10-11T00:08:45.627Z,12.70
2018-10-11T00:09:30.862Z,12.80
2018-10-11T00:17:33.724Z,11.70
2018-10-11T00:18:31.881Z,13.20
2018-10-11T00:19:30.889Z,12.80
2018-10-11T00:20:28.870Z,12.50
2018-10-11T00:21:30.025Z,12.00
2018-10-11T00:22:29.820Z,12.60
2018-10-11T00:23:30.428Z,12.90
2018-10-11T00:24:33.443Z,12.70
2018-10-11T00:33:05.872Z,13.10
2018-10-11T00:33:47.377Z,13.90
2018-10-11T00:36:18.113Z,12.40
2018-10-11T01:00:02.276Z,12.40
2018-10-11T01:01:03.447Z,12.90
2018-10-11T01:04:12.412Z,9.90
2018-10-11T01:16:06.730Z,12.50
2018-10-11T01:18:24.728Z,12.10
2018-10-11T01:19:24.888Z,14.20
2018-10-11T01:20:24.814Z,13.00
2018-10-11T01:23:52.077Z,11.60
2018-10-11T01:26:30.419Z,13.10
2018-10-11T01:43:46.915Z,13.10
2018-10-11T01:44:46.377Z,13.10
2018-10-11T01:47:22.373Z,12.50
2018-10-11T01:48:21.607Z,14.40
2018-10-11T01:49:21.514Z,13.00
2018-10-11T01:53:19.929Z,12.50
2018-10-11T01:54:39.518Z,13.90
2018-10-11T01:55:20.165Z,14.00
2018-10-11T01:56:19.979Z,14.50
2018-10-11T01:57:20.625Z,13.10
2018-10-11T01:58:20.695Z,14.20
2018-10-11T01:59:19.872Z,13.50
2018-10-11T02:00:19.836Z,13.30
2018-10-11T02:01:34.367Z,13.10
2018-10-11T02:02:20.804Z,13.40
2018-10-11T02:03:20.319Z,13.60
2018-10-11T02:04:20.864Z,12.60
2018-10-11T02:05:19.893Z,13.10
2018-10-11T02:06:19.875Z,13.10
2018-10-11T02:07:19.897Z,13.40
2018-10-11T02:08:21.654Z,13.10
2018-10-11T02:09:28.171Z,13.50
2018-10-11T02:11:32.362Z,10.80
2018-10-11T02:12:55.829Z,13.00
2018-10-11T02:13:32.815Z,12.80
2018-10-11T02:14:56.026Z,13.60
2018-10-11T02:15:32.901Z,14.20
2018-10-11T02:16:31.853Z,13.20
2018-10-11T02:17:33.726Z,12.60
2018-10-11T02:18:38.736Z,12.60
2018-10-11T02:19:32.790Z,13.10
2018-10-11T02:20:32.749Z,12.90
2018-10-11T02:21:31.765Z,13.10
2018-10-11T02:22:32.824Z,14.20
2018-10-11T02:23:35.710Z,12.90
2018-10-11T02:29:11.687Z,10.90
2018-10-11T02:30:35.986Z,12.30
2018-10-11T02:31:09.161Z,12.30
2018-10-11T02:32:09.887Z,12.70
2018-10-11T02:35:18.141Z,10.70
2018-10-11T02:36:29.682Z,11.90
2018-10-11T02:37:29.156Z,13.30
2018-10-11T02:38:19.164Z,13.10
2018-10-11T02:39:18.273Z,12.60
2018-10-11T02:40:50.143Z,12.60
2018-10-11T02:41:20.899Z,13.60
2018-10-11T02:42:18.713Z,11.70
2018-10-11T02:43:17.654Z,12.80
2018-10-11T02:44:17.709Z,12.40
2018-10-11T02:47:17.191Z,11.60
2018-10-11T02:48:15.783Z,13.00
2018-10-11T02:50:34.700Z,11.40
2018-10-11T02:52:54.207Z,10.50
2018-10-11T02:56:47.897Z,11.70
2018-10-11T02:57:35.999Z,12.30
2018-10-11T02:58:48.336Z,12.60
2018-10-11T02:59:36.750Z,12.60
2018-10-11T03:00:36.274Z,13.00
2018-10-11T03:01:35.813Z,12.80
2018-10-11T03:02:53.798Z,12.70
2018-10-11T03:03:35.860Z,13.30
2018-10-11T03:04:36.670Z,12.80
2018-10-11T03:08:04.810Z,7.30
2018-10-11T03:16:09.142Z,12.10
2018-10-11T03:16:47.071Z,12.30
2018-10-11T03:19:19.181Z,10.50
2018-10-11T03:20:18.957Z,12.30
2018-10-11T03:21:18.888Z,12.20
2018-10-11T03:24:37.329Z,11.00
2018-10-11T03:37:29.105Z,9.70
2018-10-11T03:41:19.996Z,10.40
2018-10-11T03:42:06.515Z,12.50
2018-10-11T03:47:09.914Z,12.40
2018-10-11T03:48:08.130Z,11.40
2018-10-11T03:49:08.897Z,11.80
2018-10-11T03:50:30.852Z,11.20
2018-10-11T03:53:35.127Z,11.10
2018-10-11T03:56:57.618Z,10.60
2018-10-11T03:59:48.787Z,10.10
2018-10-11T04:03:41.943Z,7.70
2018-10-11T04:04:52.396Z,9.80
2018-10-11T04:05:39.076Z,10.10
2018-10-11T04:06:39.135Z,10.80
2018-10-11T04:08:55.348Z,9.60
2018-10-11T04:09:55.357Z,10.20
2018-10-11T04:10:56.090Z,10.10
2018-10-11T04:11:55.051Z,11.00
2018-10-11T04:12:54.853Z,10.00
2018-10-11T04:13:55.832Z,10.50
2018-10-11T04:15:04.057Z,10.00
2018-10-11T04:15:55.360Z,10.70
2018-10-11T04:16:55.494Z,9.40
2018-10-11T04:17:55.015Z,12.20
2018-10-11T04:18:55.031Z,10.50
2018-10-11T04:19:54.835Z,10.20
2018-10-11T04:20:54.870Z,9.90
2018-10-11T04:21:54.871Z,11.30
2018-10-11T04:22:54.891Z,12.50
2018-10-11T04:28:27.332Z,9.10
2018-10-11T04:29:25.371Z,8.70
2018-10-11T04:30:25.378Z,9.80
2018-10-11T04:32:44.778Z,10.50
2018-10-11T04:33:44.509Z,10.30
2018-10-11T04:35:28.688Z,9.80
2018-10-11T04:35:43.704Z,10.20
2018-10-11T04:38:39.310Z,10.60
2018-10-11T04:39:40.011Z,10.40
2018-10-11T04:40:40.000Z,10.70
2018-10-11T04:41:38.919Z,9.50
2018-10-11T04:42:40.086Z,9.10
2018-10-11T04:43:40.558Z,9.40
2018-10-11T04:44:38.945Z,9.60
2018-10-11T04:45:39.799Z,10.50
2018-10-11T04:48:32.821Z,10.10
2018-10-11T04:49:34.358Z,10.20
2018-10-11T04:50:33.836Z,9.80
2018-10-11T04:51:32.778Z,9.10
2018-10-11T04:52:32.806Z,10.50
2018-10-11T04:56:31.869Z,8.70
2018-10-11T04:57:31.991Z,10.20
2018-10-11T04:58:31.617Z,10.20
2018-10-11T04:59:31.651Z,10.30
2018-10-11T05:02:37.067Z,10.20
2018-10-11T05:03:44.695Z,11.60
2018-10-11T05:04:35.584Z,9.50
2018-10-11T05:05:35.846Z,10.00
2018-10-11T05:06:35.366Z,10.10
2018-10-11T05:07:35.191Z,11.20
2018-10-11T05:08:35.216Z,10.20
2018-10-11T05:09:35.168Z,10.20
2018-10-11T05:10:35.129Z,9.60
2018-10-11T05:11:37.007Z,9.30
2018-10-11T05:12:35.123Z,8.70
2018-10-11T05:13:35.084Z,10.10
2018-10-11T05:14:35.031Z,8.20
2018-10-11T05:15:35.052Z,10.20
2018-10-11T05:16:35.047Z,10.80
2018-10-11T05:17:35.062Z,9.60
2018-10-11T05:18:34.992Z,10.30
2018-10-11T05:19:35.955Z,9.20
2018-10-11T05:20:34.938Z,10.20
2018-10-11T05:21:36.013Z,9.80
2018-10-11T05:22:34.946Z,8.80
2018-10-11T05:23:34.993Z,10.40
2018-10-11T05:24:34.949Z,10.40
2018-10-11T05:25:34.926Z,9.50
2018-10-11T05:26:34.899Z,10.00
2018-10-11T05:27:34.907Z,10.80
2018-10-11T05:28:35.003Z,11.20
2018-10-11T05:29:34.892Z,29.40
2018-10-11T05:30:34.830Z,11.10
2018-10-11T05:31:34.834Z,9.70
2018-10-11T05:32:34.831Z,9.90
2018-10-11T05:33:34.821Z,10.00
2018-10-11T05:34:34.847Z,11.00
2018-10-11T05:35:34.804Z,10.40
2018-10-11T05:36:34.782Z,10.80
2018-10-11T05:37:34.777Z,9.40
2018-10-11T05:38:34.785Z,9.60
2018-10-11T05:39:34.763Z,8.90
2018-10-11T05:40:34.752Z,10.00
2018-10-11T05:41:34.773Z,9.50
2018-10-11T05:42:34.728Z,10.40
2018-10-11T05:43:34.711Z,9.40
2018-10-11T05:44:34.823Z,11.10
2018-10-11T05:45:34.703Z,10.30
2018-10-11T05:46:34.693Z,10.60
2018-10-11T05:47:34.684Z,9.40
2018-10-11T05:48:34.649Z,10.90
2018-10-11T05:49:35.658Z,10.30
2018-10-11T05:50:34.693Z,11.20
2018-10-11T05:51:34.648Z,11.40
2018-10-11T05:52:34.590Z,10.90
2018-10-11T05:53:34.573Z,10.40
2018-10-11T05:54:35.516Z,11.00
2018-10-11T05:55:34.665Z,11.40
2018-10-11T05:56:35.047Z,11.30
2018-10-11T05:57:34.558Z,11.30
2018-10-11T05:58:34.557Z,11.40
2018-10-11T05:59:34.553Z,11.80
2018-10-11T06:00:34.509Z,10.80
2018-10-11T06:01:34.504Z,11.60
2018-10-11T06:02:34.510Z,10.70
2018-10-11T06:03:34.547Z,10.40
2018-10-11T06:04:34.570Z,10.70
2018-10-11T06:05:34.453Z,9.50
2018-10-11T06:06:34.464Z,10.80
2018-10-11T06:07:34.514Z,10.90
2018-10-11T06:08:34.423Z,11.50
2018-10-11T06:09:34.372Z,10.90
2018-10-11T06:10:34.487Z,11.30
2018-10-11T06:11:34.357Z,10.10
2018-10-11T06:12:34.422Z,10.80
2018-10-11T06:13:34.978Z,11.20
2018-10-11T06:14:34.325Z,10.60
2018-10-11T06:15:34.332Z,10.80
2018-10-11T06:16:34.316Z,11.50
2018-10-11T06:17:34.303Z,10.90
2018-10-11T06:18:34.361Z,10.10
2018-10-11T06:19:34.333Z,10.90
2018-10-11T06:20:34.249Z,11.00
2018-10-11T06:21:34.278Z,9.70
2018-10-11T06:22:34.231Z,10.30
2018-10-11T06:23:34.256Z,10.40
2018-10-11T06:24:34.302Z,11.10
2018-10-11T06:25:55.329Z,10.50
2018-10-11T06:26:34.236Z,10.20
2018-10-11T06:27:34.201Z,10.20
2018-10-11T06:28:34.169Z,10.70
2018-10-11T06:29:34.243Z,10.40
2018-10-11T06:30:34.174Z,9.80
2018-10-11T06:31:34.122Z,10.50
2018-10-11T06:32:34.122Z,11.00
2018-10-11T06:33:34.136Z,10.30
2018-10-11T06:34:34.093Z,10.90
2018-10-11T06:35:34.146Z,10.10
2018-10-11T06:36:34.149Z,11.40
2018-10-11T06:37:34.056Z,10.50
2018-10-11T06:38:34.073Z,10.10
2018-10-11T06:39:34.063Z,10.70
2018-10-11T06:40:34.540Z,10.60
2018-10-11T06:41:34.055Z,11.00
2018-10-11T06:42:34.013Z,10.70
2018-10-11T06:43:34.034Z,10.40
2018-10-11T06:44:34.013Z,10.10
2018-10-11T06:45:34.012Z,9.20
2018-10-11T06:46:34.005Z,10.60
2018-10-11T06:47:33.946Z,11.30
2018-10-11T06:48:33.955Z,9.90
2018-10-11T06:49:33.915Z,10.10
2018-10-11T06:50:33.898Z,10.40
2018-10-11T06:51:33.899Z,10.60
2018-10-11T06:52:33.890Z,10.20
2018-10-11T06:53:33.877Z,9.30
2018-10-11T06:54:33.888Z,9.80
2018-10-11T06:55:33.913Z,10.80
2018-10-11T06:56:34.019Z,8.60
2018-10-11T06:57:33.888Z,10.40
2018-10-11T06:58:33.843Z,9.90
2018-10-11T06:59:33.814Z,9.70
2018-10-11T07:00:33.827Z,10.00
2018-10-11T07:01:33.804Z,9.60
2018-10-11T07:02:33.839Z,8.80
2018-10-11T07:03:33.781Z,10.00
2018-10-11T07:04:33.768Z,11.20
2018-10-11T07:05:33.761Z,10.30
2018-10-11T07:06:33.744Z,10.30
2018-10-11T07:07:33.784Z,10.20
2018-10-11T07:08:33.714Z,9.60
2018-10-11T07:09:33.712Z,9.80
2018-10-11T07:10:33.689Z,10.10
2018-10-11T07:11:33.688Z,9.60
2018-10-11T07:12:33.672Z,10.20
2018-10-11T07:13:33.743Z,10.10
2018-10-11T07:14:33.681Z,10.30
2018-10-11T07:15:33.675Z,10.00
2018-10-11T07:16:33.642Z,9.70
2018-10-11T07:17:33.641Z,9.80
2018-10-11T07:18:33.649Z,9.90
2018-10-11T07:19:33.894Z,9.80
2018-10-11T07:20:33.601Z,9.10
2018-10-11T07:21:33.570Z,9.70
2018-10-11T07:22:33.542Z,9.70
2018-10-11T07:23:33.568Z,8.10
2018-10-11T07:24:34.559Z,10.00
2018-10-11T07:29:40.584Z,9.10
2018-10-11T07:30:30.779Z,11.40
2018-10-11T07:31:30.426Z,10.00
2018-10-11T07:32:31.353Z,10.40
2018-10-11T07:33:30.363Z,9.70
2018-10-11T07:34:30.354Z,9.80
2018-10-11T07:35:30.373Z,9.20
2018-10-11T07:36:50.211Z,9.80
2018-10-11T07:37:30.730Z,9.50
2018-10-11T07:38:30.603Z,9.70
2018-10-11T07:39:31.696Z,10.10
2018-10-11T07:40:31.357Z,9.60
2018-10-11T07:41:31.277Z,9.70
2018-10-11T07:42:30.269Z,9.70
2018-10-11T07:43:30.187Z,8.60
2018-10-11T07:44:30.190Z,9.30
2018-10-11T07:45:30.702Z,8.70
2018-10-11T07:46:30.205Z,9.00
2018-10-11T07:47:30.225Z,9.40
2018-10-11T07:48:30.162Z,9.80
2018-10-11T07:49:30.789Z,9.50
2018-10-11T07:50:30.114Z,9.00
2018-10-11T07:51:30.143Z,10.00
2018-10-11T07:52:30.122Z,10.50
2018-10-11T07:53:30.096Z,10.50
2018-10-11T07:54:30.049Z,10.10
2018-10-11T07:55:30.060Z,10.60
2018-10-11T07:56:30.231Z,10.10
2018-10-11T07:57:30.722Z,10.00
2018-10-11T07:58:30.059Z,10.20
2018-10-11T07:59:30.028Z,10.30
2018-10-11T08:00:30.035Z,10.20
2018-10-11T08:01:30.042Z,9.60
2018-10-11T08:02:31.061Z,9.70
2018-10-11T08:03:30.998Z,8.60
2018-10-11T08:04:30.010Z,10.50
2018-10-11T08:05:29.950Z,9.60
2018-10-11T08:06:29.955Z,9.30
2018-10-11T08:07:30.094Z,9.60
2018-10-11T08:08:30.039Z,10.10
2018-10-11T08:09:29.905Z,10.10
2018-10-11T08:10:40.917Z,10.90
2018-10-11T08:11:29.947Z,10.30
2018-10-11T08:12:29.838Z,10.30
2018-10-11T08:13:29.957Z,10.50
2018-10-11T08:14:29.861Z,10.20
2018-10-11T08:15:29.839Z,10.10
2018-10-11T08:16:29.889Z,10.10
2018-10-11T08:17:30.351Z,10.60
2018-10-11T08:18:29.884Z,8.70
2018-10-11T08:19:30.056Z,10.10
2018-10-11T08:20:29.769Z,9.30
2018-10-11T08:21:29.790Z,8.00
2018-10-11T08:22:29.718Z,9.00
2018-10-11T08:23:29.703Z,9.00
2018-10-11T08:24:30.068Z,10.00
2018-10-11T08:25:29.939Z,8.40
2018-10-11T08:26:31.042Z,9.50
2018-10-11T08:27:29.704Z,9.30
2018-10-11T08:28:29.645Z,9.90
2018-10-11T08:29:29.674Z,9.10
2018-10-11T08:30:29.675Z,9.20
2018-10-11T08:31:29.676Z,10.10
2018-10-11T08:32:29.860Z,9.80
2018-10-11T08:33:29.655Z,9.30
2018-10-11T08:34:29.643Z,9.30
2018-10-11T08:35:29.658Z,9.20
2018-10-11T08:36:29.638Z,10.00
2018-10-11T08:37:29.661Z,9.70
2018-10-11T08:38:29.678Z,9.60
2018-10-11T08:39:29.586Z,9.40
2018-10-11T08:42:13.471Z,8.10
2018-10-11T08:42:43.873Z,9.10
2018-10-11T08:43:43.829Z,9.20
2018-10-11T08:44:44.208Z,9.30
2018-10-11T08:45:43.852Z,9.10
2018-10-11T08:46:44.586Z,9.40
2018-10-11T08:47:45.724Z,9.60
2018-10-11T08:48:43.711Z,8.90
2018-10-11T08:49:43.759Z,9.70
2018-10-11T08:50:43.720Z,8.70
2018-10-11T08:51:43.678Z,8.00
2018-10-11T08:52:43.699Z,8.80
2018-10-11T08:53:43.801Z,8.80
2018-10-11T08:54:45.750Z,9.20
2018-10-11T08:57:01.261Z,8.20
2018-10-11T08:58:01.333Z,9.70
2018-10-11T08:59:01.097Z,9.50
2018-10-11T09:00:01.059Z,9.00
2018-10-11T09:01:00.817Z,9.20
2018-10-11T09:02:00.787Z,9.60
2018-10-11T09:03:00.854Z,9.20
2018-10-11T09:04:00.912Z,8.10
2018-10-11T09:05:01.000Z,8.30
2018-10-11T09:06:00.838Z,9.50
2018-10-11T09:07:00.818Z,8.90
2018-10-11T09:08:02.611Z,6.50
2018-10-11T09:09:00.726Z,9.30
2018-10-11T09:10:00.772Z,9.20
2018-10-11T09:11:00.769Z,9.40
2018-10-11T09:12:00.735Z,9.00
2018-10-11T09:13:02.656Z,8.90
2018-10-11T09:14:01.699Z,9.70
2018-10-11T09:15:00.686Z,8.50
2018-10-11T09:16:00.699Z,9.60
2018-10-11T09:17:00.650Z,9.60
2018-10-11T09:18:00.638Z,8.70
2018-10-11T09:19:00.670Z,9.00
2018-10-11T09:20:00.616Z,9.20
2018-10-11T09:21:01.608Z,9.40
2018-10-11T09:22:00.592Z,8.90
2018-10-11T09:23:01.681Z,9.60
2018-10-11T09:24:00.566Z,10.10
2018-10-11T09:25:00.600Z,11.10
2018-10-11T09:26:00.641Z,9.80
2018-10-11T09:27:00.578Z,9.60
2018-10-11T09:28:01.503Z,10.70
2018-10-11T09:29:00.595Z,10.10
2018-10-11T09:30:02.073Z,10.50
2018-10-11T09:31:01.469Z,10.20
2018-10-11T09:32:00.517Z,9.80
2018-10-11T09:33:00.629Z,9.90
2018-10-11T09:34:01.092Z,10.40
2018-10-11T09:35:00.475Z,10.60
2018-10-11T09:36:00.477Z,10.70
2018-10-11T09:37:00.462Z,10.50
2018-10-11T09:38:00.441Z,10.50
2018-10-11T09:39:01.384Z,9.50
2018-10-11T09:40:01.055Z,9.90
2018-10-11T09:41:21.480Z,10.80
2018-10-11T09:42:01.336Z,10.90
2018-10-11T09:43:00.370Z,9.40
2018-10-11T09:44:00.369Z,8.90
2018-10-11T09:45:00.313Z,10.40
2018-10-11T09:46:00.433Z,9.00
2018-10-11T09:47:00.297Z,9.80
2018-10-11T09:48:00.276Z,7.20
2018-10-11T09:49:00.277Z,10.90
2018-10-11T09:50:00.301Z,9.80
2018-10-11T09:51:00.282Z,10.30
2018-10-11T09:52:00.250Z,9.90
2018-10-11T09:53:00.272Z,9.10
2018-10-11T09:54:00.260Z,9.40
2018-10-11T09:55:00.257Z,9.20
2018-10-11T09:56:01.403Z,10.30
2018-10-11T09:57:00.213Z,11.00
2018-10-11T09:58:00.563Z,10.40
2018-10-11T09:59:00.288Z,10.70
2018-10-11T10:00:00.153Z,10.40
2018-10-11T10:01:00.186Z,9.80
2018-10-11T10:02:00.178Z,10.60
2018-10-11T10:03:00.176Z,10.40
2018-10-11T10:04:01.130Z,10.40
2018-10-11T10:05:01.212Z,10.30
2018-10-11T10:06:00.190Z,10.20
2018-10-11T10:07:01.041Z,10.30
2018-10-11T10:08:00.145Z,10.70
2018-10-11T10:09:00.086Z,9.50
2018-10-11T10:10:00.091Z,9.90
2018-10-11T10:11:21.160Z,11.00
2018-10-11T10:12:00.649Z,10.60
2018-10-11T10:13:00.073Z,10.80
2018-10-11T10:14:00.592Z,10.20
2018-10-11T10:15:00.012Z,8.70
2018-10-11T10:16:00.060Z,10.40
2018-10-11T10:17:00.070Z,10.30
2018-10-11T10:17:59.998Z,11.20
2018-10-11T10:18:59.980Z,10.20
2018-10-11T10:19:59.987Z,11.00
2018-10-11T10:21:00.076Z,11.20
2018-10-11T10:21:59.934Z,10.30
2018-10-11T10:22:59.972Z,10.60
2018-10-11T10:24:00.942Z,11.20
2018-10-11T10:24:59.883Z,10.30
2018-10-11T10:26:00.576Z,10.70
2018-10-11T10:27:00.050Z,11.40
2018-10-11T10:27:59.862Z,10.90
2018-10-11T10:28:59.941Z,11.30
2018-10-11T10:29:59.943Z,11.30
2018-10-11T10:30:59.896Z,10.90
2018-10-11T10:31:59.893Z,10.40
2018-10-11T10:32:59.872Z,10.80
2018-10-11T10:33:59.849Z,10.30
2018-10-11T10:34:59.808Z,10.30
2018-10-11T10:35:59.773Z,10.70
2018-10-11T10:36:59.876Z,10.30
2018-10-11T10:37:59.764Z,10.30
2018-10-11T10:38:59.730Z,9.70
2018-10-11T10:39:59.812Z,10.00
2018-10-11T10:40:59.724Z,10.40
2018-10-11T10:41:59.701Z,11.10
2018-10-11T10:42:59.762Z,11.00
2018-10-11T10:43:59.693Z,10.00
2018-10-11T10:44:59.621Z,11.10
2018-10-11T10:45:59.684Z,9.70
2018-10-11T10:46:59.673Z,10.50
2018-10-11T10:47:59.588Z,10.50
2018-10-11T10:49:00.620Z,11.00
2018-10-11T10:49:59.633Z,10.20
2018-10-11T10:50:59.608Z,10.50
2018-10-11T10:51:59.575Z,9.60
2018-10-11T10:53:00.082Z,10.10
2018-10-11T10:53:59.699Z,9.60
2018-10-11T10:54:59.593Z,9.70
2018-10-11T10:55:59.523Z,8.80
2018-10-11T10:56:59.593Z,9.80
2018-10-11T10:57:59.517Z,9.40
2018-10-11T10:58:59.510Z,9.30
2018-10-11T10:59:59.516Z,9.60
2018-10-11T11:00:59.456Z,9.80
2018-10-11T11:01:59.490Z,9.30
2018-10-11T11:02:59.591Z,8.70
2018-10-11T11:04:00.556Z,8.60
2018-10-11T11:05:00.474Z,8.40
2018-10-11T11:05:59.737Z,8.60
2018-10-11T11:06:59.449Z,8.90
2018-10-11T11:07:59.548Z,8.10
2018-10-11T11:08:59.596Z,9.80
2018-10-11T11:09:59.394Z,8.70
2018-10-11T11:12:46.025Z,7.10
2018-10-11T11:13:21.436Z,9.00
2018-10-11T11:14:22.335Z,8.40
2018-10-11T11:15:20.912Z,8.10
2018-10-11T11:16:20.897Z,8.10
2018-10-11T11:17:20.827Z,8.80
2018-10-11T11:18:22.073Z,7.80
2018-10-11T11:19:20.812Z,8.20
2018-10-11T11:20:20.894Z,8.40
2018-10-11T11:21:20.946Z,8.80
2018-10-11T11:22:20.967Z,8.10
2018-10-11T11:23:22.065Z,8.10
2018-10-11T11:24:21.341Z,8.50
2018-10-11T11:25:20.896Z,8.00
2018-10-11T11:26:20.813Z,8.20
2018-10-11T11:27:20.724Z,7.80
2018-10-11T11:28:20.733Z,7.90
2018-10-11T11:29:20.720Z,8.20
2018-10-11T11:30:20.694Z,8.30
2018-10-11T11:31:20.727Z,9.10
2018-10-11T11:32:21.367Z,7.90
2018-10-11T11:33:20.633Z,8.40
2018-10-11T11:34:20.668Z,7.10
2018-10-11T11:35:20.625Z,8.00
2018-10-11T11:36:20.661Z,7.80
2018-10-11T11:37:20.602Z,8.40
2018-10-11T11:38:20.637Z,8.20
2018-10-11T11:39:20.742Z,8.10
2018-10-11T11:40:20.655Z,7.80
2018-10-11T11:41:41.628Z,7.90
2018-10-11T11:42:20.595Z,8.30
2018-10-11T11:43:20.515Z,8.50
2018-10-11T11:44:20.682Z,8.20
2018-10-11T11:45:20.609Z,8.10
2018-10-11T11:46:20.679Z,8.20
2018-10-11T11:47:20.541Z,9.10
2018-10-11T11:48:20.461Z,8.80
2018-10-11T11:49:20.486Z,7.10
2018-10-11T11:50:20.451Z,9.10
2018-10-11T11:51:20.448Z,7.80
2018-10-11T11:52:20.466Z,8.40
2018-10-11T11:53:20.485Z,9.00
2018-10-11T11:54:20.382Z,8.90
2018-10-11T11:55:20.423Z,8.60
2018-10-11T11:56:21.924Z,8.30
2018-10-11T11:57:20.423Z,7.60
2018-10-11T11:58:20.359Z,8.50
2018-10-11T11:59:20.365Z,9.10
2018-10-11T12:00:20.349Z,8.90
2018-10-11T12:01:20.346Z,8.80
2018-10-11T12:02:20.323Z,8.70
2018-10-11T12:03:20.494Z,8.60
2018-10-11T12:04:21.300Z,8.70
2018-10-11T12:05:20.306Z,9.10
2018-10-11T12:06:20.371Z,9.60
2018-10-11T12:07:20.357Z,8.90
2018-10-11T12:08:20.360Z,8.80
2018-10-11T12:09:20.263Z,9.40
2018-10-11T12:10:21.233Z,9.50
2018-10-11T12:11:41.334Z,8.60
2018-10-11T12:12:20.221Z,9.20
2018-10-11T12:13:20.502Z,8.40
2018-10-11T12:14:20.179Z,8.10
2018-10-11T12:15:20.146Z,8.70
2018-10-11T12:16:20.199Z,8.40
2018-10-11T12:17:20.219Z,9.80
2018-10-11T12:18:20.132Z,8.70
2018-10-11T12:19:20.146Z,8.30
2018-10-11T12:20:20.158Z,8.60
2018-10-11T12:21:20.365Z,8.70
2018-10-11T12:22:20.218Z,8.90
2018-10-11T12:23:20.125Z,7.60
2018-10-11T12:24:20.099Z,8.40
2018-10-11T12:25:20.121Z,8.50
2018-10-11T12:26:20.065Z,7.60
2018-10-11T12:27:21.154Z,8.40
2018-10-11T12:28:20.135Z,7.80
2018-10-11T12:29:20.137Z,8.50
2018-10-11T12:30:20.076Z,8.80
2018-10-11T12:31:20.045Z,8.10
2018-10-11T12:32:19.959Z,8.80
2018-10-11T12:33:20.042Z,8.80
2018-10-11T12:34:19.995Z,8.90
2018-10-11T12:35:19.928Z,8.60
2018-10-11T12:36:19.954Z,8.40
2018-10-11T12:37:19.935Z,8.20
2018-10-11T12:38:19.946Z,8.20
2018-10-11T12:39:19.961Z,9.10
2018-10-11T12:40:20.026Z,8.60
2018-10-11T12:41:19.943Z,8.70
2018-10-11T12:42:19.964Z,8.70
2018-10-11T12:43:19.895Z,8.80
2018-10-11T12:44:19.883Z,8.50
2018-10-11T12:45:19.892Z,8.30
2018-10-11T12:46:19.885Z,8.90
2018-10-11T12:47:19.844Z,8.10
2018-10-11T12:48:19.833Z,8.00
2018-10-11T12:49:19.985Z,8.30
2018-10-11T12:50:19.831Z,8.50
2018-10-11T12:51:19.869Z,9.20
2018-10-11T12:52:20.979Z,8.40
2018-10-11T12:53:19.855Z,8.90
2018-10-11T12:54:20.798Z,8.80
2018-10-11T12:55:19.778Z,8.50
2018-10-11T12:56:19.803Z,8.50
2018-10-11T12:57:21.110Z,8.60
2018-10-11T12:58:19.757Z,8.20
2018-10-11T12:59:19.756Z,8.00
2018-10-11T13:00:19.721Z,8.80
2018-10-11T13:01:21.129Z,9.00
2018-10-11T13:02:19.679Z,8.50
2018-10-11T13:03:19.763Z,8.90
2018-10-11T13:04:19.681Z,8.50
2018-10-11T13:05:19.674Z,8.40
2018-10-11T13:06:19.589Z,8.80
2018-10-11T13:07:19.619Z,8.70
2018-10-11T13:08:19.980Z,8.60
2018-10-11T13:09:19.657Z,8.50
2018-10-11T13:10:19.557Z,8.50
2018-10-11T13:11:19.649Z,8.80
2018-10-11T13:12:19.591Z,8.30
2018-10-11T13:13:19.570Z,8.00
2018-10-11T13:14:19.546Z,7.80
2018-10-11T13:15:20.537Z,8.10
2018-10-11T13:16:19.518Z,8.40
2018-10-11T13:17:19.517Z,7.90
2018-10-11T13:18:19.500Z,8.30
2018-10-11T13:19:19.930Z,8.10
2018-10-11T13:20:19.459Z,8.50
2018-10-11T13:21:19.515Z,8.80
2018-10-11T13:22:19.513Z,8.60
2018-10-11T13:23:19.441Z,8.80
2018-10-11T13:24:19.432Z,8.40
2018-10-11T13:25:19.475Z,8.90
2018-10-11T13:26:19.452Z,7.80
2018-10-11T13:27:19.429Z,8.50
2018-10-11T13:28:19.394Z,8.40
2018-10-11T13:29:19.413Z,8.20
2018-10-11T13:30:19.419Z,8.00
2018-10-11T13:31:19.359Z,8.40
2018-10-11T13:32:19.330Z,7.80
2018-10-11T13:33:19.375Z,8.00
2018-10-11T13:34:19.318Z,8.40
2018-10-11T13:35:19.341Z,8.10
2018-10-11T13:36:19.358Z,9.10
2018-10-11T13:37:19.310Z,8.80
2018-10-11T13:38:19.237Z,8.00
2018-10-11T13:39:19.269Z,8.40
2018-10-11T13:40:19.271Z,8.60
2018-10-11T13:41:19.407Z,8.30
2018-10-11T13:42:19.280Z,8.30
2018-10-11T13:43:19.261Z,8.50
2018-10-11T13:44:19.208Z,8.30
2018-10-11T13:45:19.302Z,7.70
2018-10-11T13:46:19.176Z,8.40
2018-10-11T13:47:19.217Z,7.40
2018-10-11T13:48:20.137Z,8.20
2018-10-11T13:49:19.175Z,8.10
2018-10-11T13:50:19.119Z,8.10
2018-10-11T13:51:19.150Z,8.30
2018-10-11T13:52:21.684Z,8.20
2018-10-11T13:53:21.324Z,9.00
2018-10-11T13:54:19.162Z,8.40
2018-10-11T13:55:19.110Z,8.30
2018-10-11T13:56:19.150Z,8.20
2018-10-11T13:57:22.783Z,8.00
2018-10-11T13:58:20.022Z,8.60
2018-10-11T13:59:19.118Z,8.20
2018-10-11T14:00:19.011Z,8.20
2018-10-11T14:01:19.010Z,7.70
2018-10-11T14:02:19.013Z,8.10
2018-10-11T14:03:18.959Z,8.20
2018-10-11T14:04:19.016Z,7.90
2018-10-11T14:05:19.015Z,8.10
2018-10-11T14:06:19.027Z,8.00
2018-10-11T14:07:18.924Z,7.80
2018-10-11T14:08:18.921Z,8.60
2018-10-11T14:09:18.895Z,8.90
2018-10-11T14:10:18.927Z,8.70
2018-10-11T14:11:18.953Z,8.90
2018-10-11T14:12:18.872Z,8.50
2018-10-11T14:13:20.688Z,7.90
2018-10-11T14:14:19.875Z,8.20
2018-10-11T14:15:18.832Z,8.70
2018-10-11T14:16:18.837Z,8.30
2018-10-11T14:17:18.864Z,8.30
2018-10-11T14:18:18.824Z,8.10
2018-10-11T14:19:18.779Z,8.00
2018-10-11T14:20:18.799Z,8.30
2018-10-11T14:21:18.815Z,8.60
2018-10-11T14:22:18.776Z,8.40
2018-10-11T14:23:19.966Z,8.50
2018-10-11T14:24:18.755Z,8.30
2018-10-11T14:25:18.794Z,8.50
2018-10-11T14:26:18.703Z,8.80
2018-10-11T14:27:18.709Z,7.70
2018-10-11T14:28:18.869Z,8.40
2018-10-11T14:29:18.766Z,8.80
2018-10-11T14:30:18.874Z,7.60
2018-10-11T14:31:18.695Z,8.30
2018-10-11T14:32:18.730Z,7.90
2018-10-11T14:33:18.637Z,8.50
2018-10-11T14:34:18.987Z,8.50
2018-10-11T14:35:18.642Z,8.40
2018-10-11T14:36:18.645Z,8.30
2018-10-11T14:37:18.733Z,8.00
2018-10-11T14:38:18.634Z,8.20
2018-10-11T14:39:19.128Z,9.10
2018-10-11T14:40:18.539Z,8.20
2018-10-11T14:41:18.547Z,8.00
2018-10-11T14:42:18.586Z,8.10
2018-10-11T14:43:18.582Z,8.10
2018-10-11T14:44:18.505Z,7.70
2018-10-11T14:45:18.562Z,8.20
2018-10-11T14:46:18.543Z,8.80
2018-10-11T14:47:18.477Z,8.10
2018-10-11T14:48:18.521Z,8.40
2018-10-11T14:49:18.556Z,8.80
2018-10-11T14:50:19.581Z,7.80
2018-10-11T14:51:18.580Z,8.00
2018-10-11T14:52:18.557Z,8.80
2018-10-11T14:53:18.587Z,8.10
2018-10-11T14:56:51.610Z,6.80
2018-10-11T14:57:45.156Z,8.60
2018-10-11T14:58:45.149Z,8.90
2018-10-11T14:59:45.441Z,7.70
2018-10-11T15:00:45.269Z,8.30
2018-10-11T15:01:46.893Z,7.90
2018-10-11T15:02:46.157Z,8.20
2018-10-11T15:03:45.056Z,7.60
2018-10-11T15:04:45.139Z,8.20
2018-10-11T15:05:45.376Z,8.00
2018-10-11T15:06:45.238Z,8.40
2018-10-11T15:07:45.420Z,8.40
2018-10-11T15:08:45.257Z,9.10
2018-10-11T15:09:45.049Z,8.60
2018-10-11T15:10:45.095Z,8.00
2018-10-11T15:11:46.295Z,8.20
2018-10-11T15:12:46.034Z,7.80
2018-10-11T15:13:46.988Z,8.20
2018-10-11T15:14:44.986Z,8.20
2018-10-11T15:15:45.044Z,8.40
2018-10-11T15:16:44.954Z,8.60
2018-10-11T15:17:45.015Z,8.60
2018-10-11T15:18:45.183Z,8.30
2018-10-11T15:19:46.595Z,8.00
2018-10-11T15:20:45.176Z,8.30
2018-10-11T15:21:44.949Z,8.20
2018-10-11T15:22:45.653Z,8.40
2018-10-11T15:23:45.078Z,7.80
2018-10-11T15:24:46.536Z,8.20
2018-10-11T15:25:44.825Z,8.20
2018-10-11T15:28:26.201Z,7.60
2018-10-11T15:29:19.705Z,8.90
2018-10-11T15:30:19.263Z,8.80
2018-10-11T15:31:19.292Z,8.20
2018-10-11T15:32:19.164Z,7.70
2018-10-11T15:33:19.099Z,8.10
2018-10-11T15:34:19.036Z,8.20
2018-10-11T15:35:19.097Z,8.30
2018-10-11T15:36:19.146Z,8.70
2018-10-11T15:37:19.067Z,8.50
2018-10-11T15:38:18.978Z,8.40
2018-10-11T15:39:19.072Z,8.50
2018-10-11T15:40:19.016Z,8.60
2018-10-11T15:41:39.996Z,7.80
2018-10-11T15:42:18.999Z,8.20
2018-10-11T15:43:19.060Z,8.10
2018-10-11T15:44:18.985Z,8.30
2018-10-11T15:45:19.072Z,8.20
2018-10-11T15:46:19.049Z,8.20
2018-10-11T15:47:18.949Z,8.40
2018-10-11T15:48:19.071Z,8.40
2018-10-11T15:49:18.913Z,8.30
2018-10-11T15:50:18.912Z,8.80
2018-10-11T15:51:18.920Z,8.80
2018-10-11T15:52:18.848Z,8.40
2018-10-11T15:53:18.903Z,8.20
2018-10-11T15:54:18.839Z,8.60